createdAt,value
2023-01-13T00:01:58.282Z,40.31
2023-01-13T00:04:25.202Z,40.43
2023-01-13T00:06:52.428Z,40.50
2023-01-13T00:09:19.387Z,40.67
2023-01-13T00:11:46.424Z,40.41
2023-01-13T00:14:13.452Z,40.59
2023-01-13T00:16:40.389Z,40.62
2023-01-13T00:19:07.417Z,40.68
2023-01-13T00:21:34.715Z,40.75
2023-01-13T00:24:01.800Z,40.58
2023-01-13T00:26:28.719Z,40.84
2023-01-13T00:28:55.764Z,40.53
2023-01-13T00:31:22.903Z,40.92
2023-01-13T00:33:49.907Z,40.88
2023-01-13T00:36:16.840Z,40.85
2023-01-13T00:38:43.769Z,40.78
2023-01-13T00:41:10.766Z,40.85
2023-01-13T00:43:37.942Z,40.88
2023-01-13T00:46:04.950Z,40.66
2023-01-13T00:48:31.930Z,40.60
2023-01-13T00:50:59.160Z,40.51
2023-01-13T00:53:26.375Z,40.21
2023-01-13T00:55:53.492Z,40.18
2023-01-13T00:58:20.612Z,40.04
2023-01-13T01:00:47.638Z,40.37
2023-01-13T01:03:14.586Z,40.93
2023-01-13T01:05:41.485Z,40.85
2023-01-13T01:08:08.550Z,40.86
2023-01-13T01:10:35.481Z,40.77
2023-01-13T01:13:02.383Z,40.72
2023-01-13T01:15:29.301Z,40.79
2023-01-13T01:17:56.219Z,41.01
2023-01-13T01:20:23.385Z,41.01
2023-01-13T01:22:50.505Z,40.91
2023-01-13T01:25:17.794Z,40.53
2023-01-13T01:27:44.865Z,40.63
2023-01-13T01:30:11.774Z,40.32
2023-01-13T01:32:38.925Z,40.29
2023-01-13T01:35:08.612Z,40.64
2023-01-13T01:37:35.538Z,40.69
2023-01-13T01:40:02.980Z,40.86
2023-01-13T01:42:30.158Z,41.00
2023-01-13T01:44:57.384Z,40.62
2023-01-13T01:47:24.337Z,40.49
2023-01-13T01:49:51.396Z,40.65
2023-01-13T01:52:18.299Z,40.83
2023-01-13T01:54:45.291Z,41.07
2023-01-13T01:57:12.442Z,40.89
2023-01-13T01:59:39.326Z,40.96
2023-01-13T02:02:07.483Z,41.11
2023-01-13T02:04:34.511Z,40.81
2023-01-13T02:07:01.672Z,40.91
2023-01-13T02:09:28.649Z,40.97
2023-01-13T02:11:56.076Z,41.28
2023-01-13T02:14:24.220Z,41.16
2023-01-13T02:16:51.218Z,41.39
2023-01-13T02:19:18.557Z,41.55
2023-01-13T02:21:45.757Z,41.29
2023-01-13T02:24:13.032Z,41.21
2023-01-13T02:26:39.969Z,41.48
2023-01-13T02:29:07.146Z,41.56
2023-01-13T02:31:34.252Z,41.62
2023-01-13T02:34:01.481Z,41.62
2023-01-13T02:36:28.518Z,41.50
2023-01-13T02:38:55.962Z,41.89
2023-01-13T02:41:22.888Z,42.00
2023-01-13T02:43:49.832Z,41.64
2023-01-13T02:46:17.287Z,41.60
2023-01-13T02:48:45.262Z,41.75
2023-01-13T02:51:12.337Z,41.54
2023-01-13T02:53:39.510Z,41.73
2023-01-13T02:56:06.518Z,42.19
2023-01-13T02:58:33.495Z,42.26
2023-01-13T03:01:02.689Z,41.87
2023-01-13T03:03:29.603Z,41.88
2023-01-13T03:05:56.580Z,42.03
2023-01-13T03:08:23.496Z,41.97
2023-01-13T03:10:50.589Z,42.02
2023-01-13T03:13:17.770Z,41.84
2023-01-13T03:15:44.510Z,41.94
2023-01-13T03:18:11.687Z,42.00
2023-01-13T03:20:38.760Z,41.78
2023-01-13T03:23:05.592Z,41.93
2023-01-13T03:25:32.591Z,41.79
2023-01-13T03:27:59.754Z,41.93
2023-01-13T03:30:27.254Z,41.71
2023-01-13T03:32:54.355Z,42.05
2023-01-13T03:35:21.182Z,41.88
2023-01-13T03:37:48.500Z,41.89
2023-01-13T03:40:15.612Z,42.05
2023-01-13T03:42:42.521Z,41.80
2023-01-13T03:45:09.362Z,41.86
2023-01-13T03:47:36.173Z,41.68
2023-01-13T03:50:03.076Z,41.61
2023-01-13T03:52:31.097Z,41.79
2023-01-13T03:54:58.213Z,41.82
2023-01-13T03:57:25.147Z,40.86
2023-01-13T03:59:52.130Z,41.70
2023-01-13T04:02:19.048Z,41.46
2023-01-13T04:04:45.975Z,41.20
2023-01-13T04:07:12.863Z,41.39
2023-01-13T04:09:39.864Z,41.55
2023-01-13T04:12:06.962Z,41.67
2023-01-13T04:14:33.793Z,41.69
2023-01-13T04:17:01.183Z,41.58
2023-01-13T04:19:27.977Z,41.51
2023-01-13T04:21:54.895Z,41.59
2023-01-13T04:24:21.955Z,41.60
2023-01-13T04:26:48.864Z,41.79
2023-01-13T04:29:15.977Z,42.09
2023-01-13T04:31:43.158Z,42.18
2023-01-13T04:34:09.999Z,41.79
2023-01-13T04:36:36.827Z,41.70
2023-01-13T04:39:03.904Z,41.39
2023-01-13T04:41:30.755Z,41.63
2023-01-13T04:43:57.646Z,41.60
2023-01-13T04:46:24.531Z,41.63
2023-01-13T04:48:51.387Z,41.84
2023-01-13T04:51:18.395Z,41.79
2023-01-13T04:53:45.266Z,41.77
2023-01-13T04:56:12.111Z,41.88
2023-01-13T04:58:38.997Z,41.85
2023-01-13T05:01:06.193Z,42.20
2023-01-13T05:03:33.637Z,42.21
2023-01-13T05:06:00.414Z,42.17
2023-01-13T05:08:27.311Z,42.08
2023-01-13T05:10:54.162Z,42.07
2023-01-13T05:13:21.057Z,42.30
2023-01-13T05:15:47.896Z,42.33
2023-01-13T05:18:14.768Z,42.32
2023-01-13T05:20:42.036Z,42.37
2023-01-13T05:23:08.844Z,42.45
2023-01-13T05:25:35.667Z,42.53
2023-01-13T05:28:02.615Z,42.13
2023-01-13T05:30:29.459Z,41.75
2023-01-13T05:32:56.364Z,42.20
2023-01-13T05:35:23.364Z,42.57
2023-01-13T05:37:50.189Z,42.34
2023-01-13T05:40:17.016Z,41.96
2023-01-13T05:42:43.875Z,42.34
2023-01-13T05:45:11.189Z,42.17
2023-01-13T05:47:38.135Z,42.74
2023-01-13T05:50:05.111Z,42.60
2023-01-13T05:52:32.028Z,42.56
2023-01-13T05:54:58.952Z,42.23
2023-01-13T05:57:25.824Z,42.56
2023-01-13T05:59:52.871Z,42.49
2023-01-13T06:02:19.771Z,42.72
2023-01-13T06:04:47.060Z,42.43
2023-01-13T06:07:13.997Z,42.42
2023-01-13T06:09:40.995Z,42.50
2023-01-13T06:12:07.807Z,42.78
2023-01-13T06:14:37.167Z,42.64
2023-01-13T06:17:03.994Z,42.72
2023-01-13T06:19:30.937Z,42.86
2023-01-13T06:21:57.832Z,42.91
2023-01-13T06:24:24.660Z,42.95
2023-01-13T06:26:51.513Z,43.07
2023-01-13T06:29:18.341Z,43.00
2023-01-13T06:31:45.297Z,42.93
2023-01-13T06:34:12.145Z,43.00
2023-01-13T06:36:39.498Z,43.65
2023-01-13T06:39:06.373Z,43.66
2023-01-13T06:41:33.191Z,43.27
2023-01-13T06:44:00.065Z,43.04
2023-01-13T06:46:26.886Z,43.41
2023-01-13T06:48:53.994Z,43.15
2023-01-13T06:51:20.787Z,43.70
2023-01-13T06:53:47.613Z,43.25
2023-01-13T06:56:14.583Z,43.19
2023-01-13T06:58:41.735Z,43.52
2023-01-13T07:01:08.883Z,43.69
2023-01-13T07:03:35.865Z,43.45
2023-01-13T07:06:02.924Z,43.40
2023-01-13T07:08:30.165Z,43.27
2023-01-13T07:10:57.008Z,43.01
2023-01-13T07:13:24.014Z,46.08
2023-01-13T07:15:50.863Z,44.73
2023-01-13T07:18:17.709Z,44.30
2023-01-13T07:20:44.821Z,43.23
2023-01-13T07:23:11.708Z,43.58
2023-01-13T07:25:38.605Z,43.42
2023-01-13T07:28:05.426Z,43.47
2023-01-13T07:30:32.404Z,43.55
2023-01-13T07:32:59.453Z,43.52
2023-01-13T07:35:26.316Z,43.49
2023-01-13T07:37:53.944Z,43.61
2023-01-13T07:40:20.788Z,43.59
2023-01-13T07:42:47.695Z,43.68
2023-01-13T07:45:14.525Z,43.20
2023-01-13T07:47:41.543Z,43.08
2023-01-13T07:50:08.477Z,43.39
2023-01-13T07:52:35.339Z,43.44
2023-01-13T07:55:02.685Z,43.20
2023-01-13T07:57:29.611Z,42.97
2023-01-13T07:59:56.429Z,43.05
2023-01-13T08:02:23.634Z,43.24
2023-01-13T08:04:50.571Z,43.41
2023-01-13T08:07:17.462Z,43.45
2023-01-13T08:09:44.211Z,43.13
2023-01-13T08:12:11.350Z,43.22
2023-01-13T08:14:38.162Z,43.26
2023-01-13T08:17:05.056Z,43.14
2023-01-13T08:19:32.236Z,43.41
2023-01-13T08:21:59.103Z,43.60
2023-01-13T08:24:25.893Z,43.11
2023-01-13T08:26:52.865Z,43.81
2023-01-13T08:29:20.082Z,44.10
2023-01-13T08:31:47.089Z,45.23
2023-01-13T08:34:13.951Z,44.33
2023-01-13T08:36:41.958Z,43.77
2023-01-13T08:39:09.802Z,43.61
2023-01-13T08:41:36.581Z,43.10
2023-01-13T08:44:03.605Z,42.79
2023-01-13T08:46:30.467Z,43.02
2023-01-13T08:48:57.561Z,42.90
2023-01-13T08:51:24.601Z,42.97
2023-01-13T08:53:51.943Z,42.85
2023-01-13T08:56:18.701Z,42.48
2023-01-13T08:58:45.535Z,42.29
2023-01-13T09:01:12.469Z,41.89
2023-01-13T09:03:39.338Z,46.77
2023-01-13T09:06:06.254Z,42.45
2023-01-13T09:08:33.139Z,43.46
2023-01-13T09:10:59.993Z,43.08
2023-01-13T09:13:26.840Z,42.85
2023-01-13T09:15:53.716Z,41.63
2023-01-13T09:18:20.556Z,42.05
2023-01-13T09:20:47.432Z,42.55
2023-01-13T09:23:14.196Z,42.05
2023-01-13T09:25:41.286Z,42.50
2023-01-13T09:28:08.114Z,42.71
2023-01-13T09:30:35.854Z,42.61
2023-01-13T09:33:02.734Z,42.24
2023-01-13T09:35:29.546Z,42.14
2023-01-13T09:37:56.377Z,41.83
2023-01-13T09:40:23.246Z,42.50
2023-01-13T09:42:50.058Z,42.49
2023-01-13T09:45:17.103Z,42.50
2023-01-13T09:47:44.222Z,42.09
2023-01-13T09:50:11.025Z,42.14
2023-01-13T09:52:38.150Z,42.21
2023-01-13T09:55:04.982Z,42.16
2023-01-13T09:57:32.090Z,41.80
2023-01-13T09:59:58.988Z,41.62
2023-01-13T10:02:25.831Z,41.72
2023-01-13T10:04:52.877Z,41.65
2023-01-13T10:07:24.997Z,41.45
2023-01-13T10:09:53.988Z,41.37
2023-01-13T10:12:20.840Z,41.43
2023-01-13T10:14:48.189Z,41.06
2023-01-13T10:17:16.044Z,41.29
2023-01-13T10:19:42.910Z,40.62
2023-01-13T10:22:09.875Z,41.36
2023-01-13T10:24:36.950Z,41.22
2023-01-13T10:27:03.818Z,41.44
2023-01-13T10:29:30.629Z,41.30
2023-01-13T10:32:07.604Z,40.90
2023-01-13T10:34:34.570Z,40.90
2023-01-13T10:37:01.486Z,41.07
2023-01-13T10:39:28.308Z,41.17
2023-01-13T10:41:55.160Z,41.03
2023-01-13T10:44:22.058Z,41.46
2023-01-13T10:46:49.381Z,41.49
2023-01-13T10:49:16.170Z,41.15
2023-01-13T10:51:43.789Z,40.90
2023-01-13T10:54:10.646Z,40.71
2023-01-13T10:56:37.399Z,40.57
2023-01-13T10:59:04.244Z,40.68
2023-01-13T11:01:31.264Z,40.86
2023-01-13T11:03:58.301Z,40.78
2023-01-13T11:06:25.130Z,40.80
2023-01-13T11:08:52.032Z,41.12
2023-01-13T11:11:18.958Z,41.48
2023-01-13T11:13:45.830Z,41.51
2023-01-13T11:16:12.752Z,42.01
2023-01-13T11:18:39.696Z,42.36
2023-01-13T11:21:06.591Z,42.59
2023-01-13T11:23:33.375Z,42.00
2023-01-13T11:26:00.214Z,41.59
2023-01-13T11:28:27.092Z,41.55
2023-01-13T11:30:54.068Z,41.67
2023-01-13T11:33:20.871Z,41.70
2023-01-13T11:35:47.801Z,41.65
2023-01-13T11:38:14.879Z,41.59
2023-01-13T11:40:41.650Z,41.48
2023-01-13T11:43:08.704Z,42.04
2023-01-13T11:45:35.827Z,42.02
2023-01-13T11:48:02.792Z,41.47
2023-01-13T11:50:29.570Z,41.88
2023-01-13T11:52:56.630Z,41.87
2023-01-13T11:55:23.457Z,41.85
2023-01-13T11:57:50.690Z,42.11
2023-01-13T12:00:17.578Z,42.07
2023-01-13T12:02:44.843Z,41.51
2023-01-13T12:05:11.927Z,41.77
2023-01-13T12:07:38.917Z,41.64
2023-01-13T12:10:08.957Z,44.85
2023-01-13T12:12:38.459Z,43.38
2023-01-13T12:15:05.397Z,42.27
2023-01-13T12:17:32.205Z,48.47
2023-01-13T12:19:59.031Z,48.59
2023-01-13T12:22:26.110Z,46.97
2023-01-13T12:24:52.969Z,41.76
2023-01-13T12:27:19.880Z,42.21
2023-01-13T12:29:47.745Z,41.85
2023-01-13T12:32:14.613Z,41.64
2023-01-13T12:34:41.809Z,41.28
2023-01-13T12:37:08.730Z,40.93
2023-01-13T12:39:35.559Z,41.19
2023-01-13T12:42:02.828Z,40.79
2023-01-13T12:44:30.216Z,40.67
2023-01-13T12:46:57.193Z,39.86
2023-01-13T12:49:24.041Z,40.28
2023-01-13T12:51:51.019Z,39.62
2023-01-13T12:54:18.364Z,39.04
2023-01-13T12:56:45.232Z,41.12
2023-01-13T12:59:12.527Z,40.92
2023-01-13T13:01:39.758Z,45.97
2023-01-13T13:04:07.077Z,46.26
2023-01-13T13:06:33.923Z,45.63
2023-01-13T13:09:03.456Z,44.43
2023-01-13T13:11:30.836Z,43.98
2023-01-13T13:13:57.790Z,42.41
2023-01-13T13:16:24.707Z,41.96
2023-01-13T13:18:51.647Z,41.57
2023-01-13T13:21:18.585Z,40.69
2023-01-13T13:23:45.642Z,41.02
2023-01-13T13:26:12.486Z,41.04
2023-01-13T13:28:39.467Z,41.13
2023-01-13T13:31:06.583Z,41.69
2023-01-13T13:33:33.553Z,41.22
2023-01-13T13:36:00.568Z,41.44
2023-01-13T13:38:27.389Z,41.71
2023-01-13T13:40:54.449Z,41.08
2023-01-13T13:43:21.274Z,41.49
2023-01-13T13:45:48.224Z,41.15
2023-01-13T13:48:15.115Z,41.11
2023-01-13T13:50:42.133Z,40.72
2023-01-13T13:53:09.142Z,40.12
2023-01-13T13:55:36.366Z,39.95
2023-01-13T13:58:03.411Z,40.37
2023-01-13T14:00:30.297Z,39.82
2023-01-13T14:02:57.180Z,40.50
2023-01-13T14:05:24.078Z,40.70
2023-01-13T14:07:50.928Z,40.44
2023-01-13T14:10:17.906Z,41.06
2023-01-13T14:12:45.123Z,40.42
2023-01-13T14:15:12.752Z,40.61
2023-01-13T14:17:39.695Z,41.13
2023-01-13T14:20:07.635Z,40.98
2023-01-13T14:22:36.575Z,40.88
2023-01-13T14:25:03.379Z,41.73
2023-01-13T14:27:30.441Z,43.27
2023-01-13T14:29:57.330Z,44.31
2023-01-13T14:32:24.594Z,44.79
2023-01-13T14:34:54.299Z,44.11
2023-01-13T14:37:21.270Z,45.28
2023-01-13T14:39:48.146Z,45.83
2023-01-13T14:42:14.985Z,45.64
2023-01-13T14:44:44.232Z,44.85
2023-01-13T14:47:11.165Z,45.59
2023-01-13T14:49:38.249Z,45.25
2023-01-13T14:52:05.133Z,45.44
2023-01-13T14:54:32.537Z,46.46
2023-01-13T14:56:59.390Z,45.62
2023-01-13T14:59:26.305Z,45.20
2023-01-13T15:01:53.569Z,45.59
2023-01-13T15:04:21.402Z,45.37
2023-01-13T15:06:48.601Z,45.21
2023-01-13T15:09:17.736Z,44.85
2023-01-13T15:11:44.554Z,44.86
2023-01-13T15:14:11.434Z,44.75
2023-01-13T15:16:38.460Z,44.25
2023-01-13T15:19:06.769Z,44.29
2023-01-13T15:21:33.691Z,44.28
2023-01-13T15:24:00.484Z,43.71
2023-01-13T15:26:27.284Z,44.13
2023-01-13T15:28:54.850Z,44.29
2023-01-13T15:31:21.734Z,44.49
2023-01-13T15:33:48.812Z,44.69
2023-01-13T15:36:15.887Z,44.63
2023-01-13T15:38:43.599Z,44.54
2023-01-13T15:41:10.584Z,44.17
2023-01-13T15:43:37.348Z,43.93
2023-01-13T15:46:04.291Z,44.08
2023-01-13T15:48:31.177Z,44.04
2023-01-13T15:50:59.384Z,44.23
2023-01-13T15:53:27.364Z,44.66
2023-01-13T15:55:54.250Z,44.96
2023-01-13T15:58:21.116Z,44.81
2023-01-13T16:00:53.800Z,44.76
2023-01-13T16:03:20.935Z,44.73
2023-01-13T16:05:47.791Z,44.65
2023-01-13T16:08:15.854Z,44.29
2023-01-13T16:10:43.030Z,44.00
2023-01-13T16:13:11.290Z,44.28
2023-01-13T16:15:38.142Z,44.43
2023-01-13T16:18:05.110Z,44.71
2023-01-13T16:20:32.338Z,44.76
2023-01-13T16:22:59.227Z,45.11
2023-01-13T16:25:26.684Z,44.96
2023-01-13T16:27:53.489Z,44.84
2023-01-13T16:30:20.510Z,45.02
2023-01-13T16:32:47.389Z,44.79
2023-01-13T16:35:14.421Z,44.82
2023-01-13T16:37:42.296Z,45.14
2023-01-13T16:40:09.174Z,46.46
2023-01-13T16:42:36.389Z,46.18
2023-01-13T16:45:03.337Z,46.75
2023-01-13T16:47:30.139Z,46.59
2023-01-13T16:49:56.981Z,47.35
2023-01-13T16:52:23.970Z,47.59
2023-01-13T16:54:50.784Z,47.40
2023-01-13T16:57:17.992Z,47.24
2023-01-13T16:59:44.792Z,47.45
2023-01-13T17:02:12.147Z,47.98
2023-01-13T17:04:39.278Z,47.57
2023-01-13T17:07:06.803Z,47.58
2023-01-13T17:09:33.651Z,47.81
2023-01-13T17:12:00.931Z,47.72
2023-01-13T17:14:30.089Z,48.34
2023-01-13T17:16:58.320Z,48.49
2023-01-13T17:19:25.283Z,48.75
2023-01-13T17:21:52.186Z,48.19
2023-01-13T17:24:19.491Z,47.91
2023-01-13T17:26:46.624Z,48.06
2023-01-13T17:29:13.557Z,47.82
2023-01-13T17:31:40.630Z,47.62
2023-01-13T17:34:07.937Z,47.77
2023-01-13T17:36:34.719Z,47.76
2023-01-13T17:39:01.742Z,47.84
2023-01-13T17:41:28.793Z,49.12
2023-01-13T17:43:56.217Z,50.17
2023-01-13T17:46:23.444Z,49.74
2023-01-13T17:48:51.123Z,49.10
2023-01-13T17:51:19.857Z,48.80
2023-01-13T17:53:46.783Z,48.73
2023-01-13T17:56:14.766Z,48.74
2023-01-13T17:58:41.706Z,48.83
2023-01-13T18:01:08.603Z,49.02
2023-01-13T18:03:35.958Z,48.99
2023-01-13T18:06:02.791Z,48.61
2023-01-13T18:08:30.604Z,48.41
2023-01-13T18:10:57.855Z,48.28
2023-01-13T18:13:25.255Z,47.78
2023-01-13T18:15:52.275Z,49.00
2023-01-13T18:18:19.413Z,50.62
2023-01-13T18:20:46.625Z,51.94
2023-01-13T18:23:13.795Z,50.68
2023-01-13T18:25:41.952Z,49.96
2023-01-13T18:28:10.145Z,49.68
2023-01-13T18:30:37.785Z,49.83
2023-01-13T18:33:05.404Z,51.27
2023-01-13T18:35:32.426Z,51.05
2023-01-13T18:37:59.819Z,50.67
2023-01-13T18:40:27.317Z,51.82
2023-01-13T18:42:54.425Z,52.54
2023-01-13T18:45:22.060Z,52.15
2023-01-13T18:47:49.108Z,51.48
2023-01-13T18:50:17.161Z,51.02
2023-01-13T18:52:44.437Z,50.72
2023-01-13T18:55:12.028Z,50.85
2023-01-13T18:57:39.683Z,50.90
2023-01-13T19:00:06.561Z,51.08
2023-01-13T19:02:37.327Z,50.96
2023-01-13T19:05:05.349Z,52.52
2023-01-13T19:07:32.340Z,51.93
2023-01-13T19:09:59.325Z,52.19
2023-01-13T19:12:26.340Z,52.72
2023-01-13T19:14:53.423Z,52.08
2023-01-13T19:17:20.285Z,51.92
2023-01-13T19:19:47.590Z,51.75
2023-01-13T19:22:14.982Z,53.25
2023-01-13T19:24:42.255Z,53.31
2023-01-13T19:27:09.557Z,53.25
2023-01-13T19:29:36.849Z,52.42
2023-01-13T19:32:09.715Z,53.04
2023-01-13T19:34:38.234Z,53.28
2023-01-13T19:37:05.564Z,53.05
2023-01-13T19:39:34.036Z,52.57
2023-01-13T19:42:01.358Z,52.17
2023-01-13T19:44:29.740Z,52.87
2023-01-13T19:46:57.462Z,52.53
2023-01-13T19:49:25.076Z,51.92
2023-01-13T19:51:56.449Z,52.20
2023-01-13T19:54:25.106Z,52.39
2023-01-13T19:56:52.270Z,51.73
2023-01-13T19:59:21.170Z,52.32
2023-01-13T20:01:48.957Z,51.82
2023-01-13T20:04:16.210Z,51.31
2023-01-13T20:06:43.623Z,50.71
2023-01-13T20:09:10.823Z,51.60
2023-01-13T20:11:38.283Z,50.92
2023-01-13T20:14:06.754Z,50.81
2023-01-13T20:16:33.868Z,50.66
2023-01-13T20:19:02.340Z,51.24
2023-01-13T20:21:29.370Z,50.62
2023-01-13T20:23:56.606Z,50.92
2023-01-13T20:26:23.893Z,50.72
2023-01-13T20:28:51.644Z,49.94
2023-01-13T20:31:18.893Z,49.89
2023-01-13T20:33:46.349Z,50.29
2023-01-13T20:36:13.738Z,49.37
2023-01-13T20:38:41.027Z,49.05
2023-01-13T20:41:07.859Z,50.26
2023-01-13T20:43:35.143Z,50.03
2023-01-13T20:46:02.282Z,49.79
2023-01-13T20:48:30.542Z,50.16
2023-01-13T20:50:57.702Z,49.55
2023-01-13T20:53:25.262Z,49.86
2023-01-13T20:55:54.339Z,49.47
2023-01-13T20:58:21.698Z,48.78
2023-01-13T21:00:48.942Z,49.70
2023-01-13T21:03:15.923Z,49.12
2023-01-13T21:05:43.035Z,48.49
2023-01-13T21:08:09.963Z,48.53
2023-01-13T21:10:36.959Z,48.29
2023-01-13T21:13:03.915Z,48.48
2023-01-13T21:15:31.217Z,47.56
2023-01-13T21:17:58.507Z,47.45
2023-01-13T21:20:25.743Z,47.15
2023-01-13T21:22:52.703Z,46.90
2023-01-13T21:25:20.208Z,46.62
2023-01-13T21:27:47.212Z,46.77
2023-01-13T21:30:14.688Z,46.85
2023-01-13T21:32:41.534Z,46.99
2023-01-13T21:35:09.352Z,46.88
2023-01-13T21:37:36.324Z,47.13
2023-01-13T21:40:03.255Z,47.83
2023-01-13T21:42:30.944Z,47.62
2023-01-13T21:44:58.364Z,47.54
2023-01-13T21:47:25.215Z,47.97
2023-01-13T21:49:52.190Z,47.89
2023-01-13T21:52:19.016Z,47.90
2023-01-13T21:54:46.312Z,48.00
2023-01-13T21:57:13.196Z,47.57
2023-01-13T21:59:43.429Z,49.30
2023-01-13T22:02:24.646Z,48.77
2023-01-13T22:04:52.453Z,48.44
2023-01-13T22:07:21.627Z,47.93
2023-01-13T22:09:48.707Z,47.36
2023-01-13T22:12:15.628Z,48.49
2023-01-13T22:14:42.500Z,47.51
2023-01-13T22:17:09.905Z,47.50
2023-01-13T22:19:36.729Z,46.99
2023-01-13T22:22:03.708Z,47.85
2023-01-13T22:24:30.573Z,47.69
2023-01-13T22:26:57.394Z,47.47
2023-01-13T22:29:24.180Z,47.70
2023-01-13T22:31:51.090Z,47.89
2023-01-13T22:34:17.967Z,48.03
2023-01-13T22:36:45.030Z,47.71
2023-01-13T22:39:11.949Z,47.48
2023-01-13T22:41:38.822Z,47.88
2023-01-13T22:44:05.847Z,47.28
2023-01-13T22:46:33.042Z,47.08
2023-01-13T22:49:00.000Z,47.36
2023-01-13T22:51:26.873Z,47.83
2023-01-13T22:53:53.744Z,47.32
2023-01-13T22:56:20.644Z,48.22
2023-01-13T22:58:47.537Z,47.88
2023-01-13T23:01:14.538Z,47.37
2023-01-13T23:03:41.430Z,47.80
2023-01-13T23:06:09.024Z,46.63
2023-01-13T23:08:36.326Z,46.78
2023-01-13T23:11:05.803Z,46.63
2023-01-13T23:13:32.691Z,46.79
2023-01-13T23:15:59.552Z,46.84
2023-01-13T23:18:26.490Z,46.57
2023-01-13T23:20:54.381Z,46.19
2023-01-13T23:23:21.192Z,46.27
2023-01-13T23:25:48.039Z,46.00
2023-01-13T23:28:15.782Z,45.73
2023-01-13T23:30:42.641Z,45.41
2023-01-13T23:33:09.723Z,45.80
2023-01-13T23:35:36.533Z,45.76
2023-01-13T23:38:03.420Z,46.19
2023-01-13T23:40:30.362Z,46.13
2023-01-13T23:42:57.220Z,46.15
2023-01-13T23:45:24.008Z,46.33
2023-01-13T23:47:51.205Z,46.14
2023-01-13T23:50:18.166Z,46.36
2023-01-13T23:52:44.967Z,46.37
2023-01-13T23:55:16.015Z,46.52
2023-01-13T23:57:44.055Z,46.11
